createdAt,value
2019-05-09T00:04:23.147Z,97293.95
2019-05-09T00:09:28.091Z,97297.53
2019-05-09T00:14:34.223Z,97289.74
2019-05-09T00:19:39.217Z,97285.81
2019-05-09T00:24:45.504Z,97282.88
2019-05-09T00:29:53.193Z,97276.66
2019-05-09T00:35:13.951Z,97273.78
2019-05-09T00:40:18.145Z,97268.00
2019-05-09T00:45:37.951Z,97267.05
2019-05-09T00:50:43.734Z,97263.04
2019-05-09T00:55:48.562Z,97259.23
2019-05-09T01:00:53.393Z,97263.95
2019-05-09T01:05:58.148Z,97261.98
2019-05-09T01:11:11.322Z,97260.16
2019-05-09T01:16:09.070Z,97256.45
2019-05-09T01:21:13.636Z,97249.13
2019-05-09T01:26:18.242Z,97243.27
2019-05-09T01:31:23.998Z,97235.86
2019-05-09T01:36:48.125Z,97234.03
2019-05-09T01:41:53.213Z,97225.09
2019-05-09T01:46:58.109Z,97231.05
2019-05-09T01:52:03.441Z,97230.86
2019-05-09T01:57:08.514Z,97235.63
2019-05-09T02:02:14.267Z,97232.45
2019-05-09T02:07:19.126Z,97228.83
2019-05-09T02:12:24.586Z,97222.56
2019-05-09T02:17:34.040Z,97223.73
2019-05-09T02:22:38.781Z,97211.02
2019-05-09T02:27:43.670Z,97219.35
2019-05-09T02:32:48.467Z,97219.56
2019-05-09T02:37:53.221Z,97209.67
2019-05-09T02:42:59.063Z,97210.00
2019-05-09T02:48:04.237Z,97209.31
2019-05-09T02:53:08.983Z,97210.07
2019-05-09T02:58:15.153Z,97211.65
2019-05-09T03:03:21.343Z,97208.05
2019-05-09T03:08:29.354Z,97208.19
2019-05-09T03:13:32.075Z,97206.22
2019-05-09T03:18:38.863Z,97202.98
2019-05-09T03:23:43.070Z,97197.15
2019-05-09T03:29:08.873Z,97198.22
2019-05-09T03:34:13.549Z,97195.61
2019-05-09T03:39:18.664Z,97198.48
2019-05-09T03:44:23.339Z,97199.41
2019-05-09T03:49:28.450Z,97196.66
2019-05-09T03:54:33.341Z,97191.51
2019-05-09T03:59:38.225Z,97187.86
2019-05-09T04:04:43.240Z,97184.59
2019-05-09T04:09:48.107Z,97176.44
2019-05-09T04:14:52.923Z,97166.27
2019-05-09T04:19:57.868Z,97153.96
2019-05-09T04:25:02.716Z,97153.59
2019-05-09T04:30:09.462Z,97144.87
2019-05-09T04:35:13.728Z,97140.01
2019-05-09T04:40:18.367Z,97139.42
2019-05-09T04:45:33.124Z,97142.09
2019-05-09T04:50:37.657Z,97143.64
2019-05-09T04:55:42.658Z,97142.69
2019-05-09T05:01:07.300Z,97142.52
2019-05-09T05:06:12.206Z,97143.70
2019-05-09T05:11:18.313Z,97141.42
2019-05-09T05:16:23.199Z,97134.42
2019-05-09T05:21:28.441Z,97125.78
2019-05-09T05:26:33.426Z,97115.20
2019-05-09T05:31:38.765Z,97106.37
2019-05-09T05:36:43.741Z,97104.09
2019-05-09T05:41:48.577Z,97087.46
2019-05-09T05:47:00.922Z,97087.69
2019-05-09T05:52:07.812Z,97084.34
2019-05-09T05:57:11.819Z,97080.41
2019-05-09T06:02:17.777Z,97074.99
2019-05-09T06:07:24.072Z,97074.85
2019-05-09T06:12:28.808Z,97061.67
2019-05-09T06:17:33.559Z,97062.68
2019-05-09T06:22:38.325Z,97055.78
2019-05-09T06:27:43.143Z,97065.34
2019-05-09T06:32:48.859Z,97058.67
2019-05-09T06:37:53.654Z,97055.88
2019-05-09T06:42:59.304Z,97057.88
2019-05-09T06:48:04.586Z,97038.80
2019-05-09T06:53:09.319Z,97035.42
2019-05-09T06:58:33.723Z,97033.14
2019-05-09T07:03:49.010Z,97026.12
2019-05-09T07:08:55.293Z,97021.67
2019-05-09T07:14:00.040Z,97023.36
2019-05-09T07:19:08.004Z,97011.55
2019-05-09T07:24:13.009Z,97004.77
2019-05-09T07:29:17.936Z,96992.77
2019-05-09T07:34:27.777Z,96993.05
2019-05-09T07:39:32.455Z,96992.05
2019-05-09T07:44:48.040Z,96989.16
2019-05-09T07:49:43.893Z,96985.88
2019-05-09T07:54:50.379Z,96979.69
2019-05-09T07:59:55.223Z,96982.05
2019-05-09T08:05:00.392Z,96976.09
2019-05-09T08:10:09.114Z,96972.49
2019-05-09T08:15:16.392Z,96968.77
2019-05-09T08:20:20.653Z,96954.45
2019-05-09T08:25:27.706Z,96945.06
2019-05-09T08:30:35.754Z,96946.17
2019-05-09T08:35:38.512Z,96944.56
2019-05-09T08:40:43.211Z,96936.71
2019-05-09T08:45:48.468Z,96928.33
2019-05-09T08:50:55.203Z,96921.85
2019-05-09T08:56:02.971Z,96920.03
2019-05-09T09:01:09.763Z,96912.94
2019-05-09T09:06:14.500Z,96903.58
2019-05-09T09:11:19.353Z,96898.18
2019-05-09T09:16:24.347Z,96900.75
2019-05-09T09:21:29.139Z,96890.76
2019-05-09T09:26:33.889Z,96899.79
2019-05-09T09:31:38.977Z,96896.70
2019-05-09T09:36:43.686Z,96891.20
2019-05-09T09:41:49.527Z,96881.36
2019-05-09T09:46:54.399Z,96866.11
2019-05-09T09:51:59.245Z,96870.50
2019-05-09T09:57:03.989Z,96868.31
2019-05-09T10:02:10.509Z,96858.05
2019-05-09T10:07:21.961Z,96858.47
2019-05-09T10:12:29.306Z,96859.93
2019-05-09T10:17:35.676Z,96851.69
2019-05-09T10:22:46.466Z,96854.52
2019-05-09T10:27:48.016Z,96842.23
2019-05-09T10:32:52.762Z,96839.20
2019-05-09T10:37:58.846Z,96835.27
2019-05-09T10:43:11.562Z,96832.58
2019-05-09T10:48:23.057Z,96831.70
2019-05-09T10:53:22.831Z,96832.55
2019-05-09T10:58:28.171Z,96832.59
2019-05-09T11:03:33.113Z,96834.23
2019-05-09T11:08:38.215Z,96838.14
2019-05-09T11:13:43.215Z,96831.59
2019-05-09T11:18:48.521Z,96831.58
2019-05-09T11:23:53.313Z,96828.13
2019-05-09T11:31:07.372Z,96824.50
2019-05-09T11:34:04.715Z,96833.20
2019-05-09T11:39:11.121Z,96823.97
2019-05-09T11:44:18.295Z,96826.02
2019-05-09T11:49:23.225Z,96819.36
2019-05-09T11:54:28.231Z,96814.95
2019-05-09T11:59:33.921Z,96818.84
2019-05-09T12:04:39.055Z,96812.33
2019-05-09T12:09:44.402Z,96808.56
2019-05-09T12:14:49.514Z,96803.18
2019-05-09T12:20:08.983Z,96798.70
2019-05-09T12:25:02.613Z,96799.25
2019-05-09T12:30:11.316Z,96803.17
2019-05-09T12:35:18.899Z,96791.64
2019-05-09T12:40:22.589Z,96779.11
2019-05-09T12:45:27.434Z,96756.77
2019-05-09T12:50:32.072Z,96759.36
2019-05-09T12:55:38.766Z,96756.77
2019-05-09T13:00:43.719Z,96755.35
2019-05-09T13:05:48.558Z,96758.45
2019-05-09T13:10:53.305Z,96756.43
2019-05-09T13:16:05.231Z,96772.31
2019-05-09T13:21:10.070Z,96771.59
2019-05-09T13:26:14.900Z,96772.39
2019-05-09T13:31:19.753Z,96767.59
2019-05-09T13:36:24.501Z,96760.04
2019-05-09T13:41:29.240Z,96754.91
2019-05-09T13:46:34.196Z,96755.05
2019-05-09T13:51:48.769Z,96757.89
2019-05-09T13:56:50.379Z,96764.77
2019-05-09T14:01:52.653Z,96765.81
2019-05-09T14:06:57.572Z,96772.68
2019-05-09T14:12:02.413Z,96774.33
2019-05-09T14:17:08.510Z,96783.39
2019-05-09T14:22:13.537Z,96786.28
2019-05-09T14:27:19.404Z,96779.70
2019-05-09T14:32:26.566Z,96770.33
2019-05-09T14:37:31.966Z,96766.72
2019-05-09T14:42:39.061Z,96756.95
2019-05-09T14:47:45.115Z,96764.66
2019-05-09T14:52:52.477Z,96758.30
2019-05-09T14:57:57.824Z,96754.41
2019-05-09T15:03:02.873Z,96740.03
2019-05-09T15:08:07.598Z,96721.48
2019-05-09T15:13:12.958Z,96724.31
2019-05-09T15:18:17.878Z,96731.12
2019-05-09T15:23:22.991Z,96726.08
2019-05-09T15:28:31.302Z,96711.09
2019-05-09T15:33:38.326Z,96706.25
2019-05-09T15:38:49.532Z,96696.50
2019-05-09T15:44:01.805Z,96696.41
2019-05-09T15:49:14.522Z,96700.05
2019-05-09T15:54:29.381Z,96705.47
2019-05-09T15:59:42.216Z,96704.70
2019-05-09T16:04:51.704Z,96713.50
2019-05-09T16:09:58.150Z,96704.98
2019-05-09T16:15:07.643Z,96708.36
2019-05-09T16:20:14.192Z,96700.33
2019-05-09T16:25:21.665Z,96703.08
2019-05-09T16:30:28.191Z,96697.27
2019-05-09T16:35:37.948Z,96686.02
2019-05-09T16:40:42.104Z,96679.45
2019-05-09T16:45:47.945Z,96676.53
2019-05-09T16:51:00.425Z,96686.01
2019-05-09T16:56:00.431Z,96688.73
2019-05-09T17:01:05.186Z,96690.22
2019-05-09T17:06:10.633Z,96688.21
2019-05-09T17:11:18.970Z,96673.55
2019-05-09T17:16:21.859Z,96678.22
2019-05-09T17:21:28.314Z,96681.67
2019-05-09T17:26:33.086Z,96689.28
2019-05-09T17:31:38.455Z,96695.33
2019-05-09T17:36:43.292Z,96689.59
2019-05-09T17:41:48.033Z,96693.81
2019-05-09T17:46:52.984Z,96701.73
2019-05-09T17:51:58.452Z,96688.64
2019-05-09T17:57:03.593Z,96690.50
2019-05-09T18:02:08.781Z,96685.57
2019-05-09T18:07:13.714Z,96687.17
2019-05-09T18:12:18.945Z,96689.84
2019-05-09T18:17:25.027Z,96692.25
2019-05-09T18:22:30.387Z,96691.04
2019-05-09T18:27:35.233Z,96692.95
2019-05-09T18:32:48.880Z,96686.98
2019-05-09T18:37:53.507Z,96690.19
2019-05-09T18:42:58.472Z,96688.64
2019-05-09T18:48:03.494Z,96690.44
2019-05-09T18:53:08.271Z,96696.06
2019-05-09T18:58:13.012Z,96687.28
2019-05-09T19:03:19.294Z,96687.29
2019-05-09T19:08:24.263Z,96685.55
2019-05-09T19:13:29.482Z,96680.88
2019-05-09T19:18:52.059Z,96666.40
2019-05-09T19:23:56.916Z,96679.52
2019-05-09T19:29:01.547Z,96677.41
2019-05-09T19:34:07.074Z,96681.48
2019-05-09T19:39:11.864Z,96667.05
2019-05-09T19:44:16.587Z,96698.77
2019-05-09T19:49:21.232Z,96705.00
2019-05-09T19:54:25.977Z,96694.18
2019-05-09T19:59:30.824Z,96687.59
2019-05-09T20:04:35.678Z,96686.66
2019-05-09T20:09:43.998Z,96684.09
2019-05-09T20:14:50.646Z,96681.62
2019-05-09T20:19:55.342Z,96692.94
2019-05-09T20:25:00.195Z,96694.70
2019-05-09T20:30:07.403Z,96707.27
2019-05-09T20:35:12.129Z,96718.22
2019-05-09T20:40:17.163Z,96719.17
2019-05-09T20:45:22.218Z,96706.88
2019-05-09T20:50:27.069Z,96706.47
2019-05-09T20:55:32.016Z,96707.14
2019-05-09T21:00:36.981Z,96696.39
2019-05-09T21:05:41.908Z,96677.97
2019-05-09T21:10:46.957Z,96693.42
2019-05-09T21:15:51.906Z,96678.73
2019-05-09T21:20:57.980Z,96682.31
2019-05-09T21:26:03.085Z,96676.76
2019-05-09T21:31:07.975Z,96670.32
2019-05-09T21:36:12.721Z,96662.19
2019-05-09T21:41:17.292Z,96659.04
2019-05-09T21:46:22.107Z,96659.84
2019-05-09T21:51:26.805Z,96667.19
2019-05-09T21:56:31.591Z,96667.20
2019-05-09T22:01:36.180Z,96661.13
2019-05-09T22:06:41.719Z,96658.49
2019-05-09T22:11:46.643Z,96658.81
2019-05-09T22:16:51.384Z,96654.02
2019-05-09T22:21:56.033Z,96645.55
2019-05-09T22:27:01.898Z,96648.25
2019-05-09T22:32:06.638Z,96643.33
2019-05-09T22:37:12.917Z,96645.03
2019-05-09T22:42:17.553Z,96633.84
2019-05-09T22:47:22.200Z,96642.95
2019-05-09T22:52:26.942Z,96633.23
2019-05-09T22:57:31.584Z,96632.04
2019-05-09T23:02:36.327Z,96627.69
2019-05-09T23:07:41.070Z,96637.11
2019-05-09T23:12:45.813Z,96626.41
2019-05-09T23:17:51.582Z,96631.67
2019-05-09T23:22:56.630Z,96629.72
2019-05-09T23:28:01.379Z,96622.78
2019-05-09T23:33:06.128Z,96609.19
2019-05-09T23:38:10.754Z,96598.16
2019-05-09T23:43:15.505Z,96595.00
2019-05-09T23:48:20.269Z,96586.67
2019-05-09T23:53:32.253Z,96587.32
2019-05-09T23:58:55.128Z,96594.05
